Time;durP1;ratioP1;P1;durP2;ratioP2;P2;SDS_P1;SDS_P2;PMS_P1;PMS_P2;Temp;Humidity;BMP_temperature;BMP_pressure;BME280_temperature;BME280_humidity;BME280_pressure;Samples;Min_cycle;Max_cycle;Signal;HPM_P1;HPM_P2
2022/09/30 00:00:39;;;;;;;4.50;4.15;;;;;;;19.36;98.90;98921.75;5109838;28;20199;-56
2022/09/30 00:03:06;;;;;;;8.30;4.70;;;;;;;19.21;100.00;98928.97;5109908;28;20205;-57
2022/09/30 00:05:33;;;;;;;4.63;4.23;;;;;;;19.20;100.00;98932.53;5109592;28;20197;-56
2022/09/30 00:07:59;;;;;;;4.75;4.32;;;;;;;19.22;100.00;98935.91;5109663;28;20194;-56
2022/09/30 00:10:26;;;;;;;4.63;4.22;;;;;;;19.19;100.00;98928.22;5109503;28;20190;-56
2022/09/30 00:12:54;;;;;;;5.50;4.75;;;;;;;19.13;100.00;98934.81;5109481;28;20202;-57
2022/09/30 00:15:21;;;;;;;4.72;4.22;;;;;;;19.16;100.00;98933.75;5108876;28;20285;-56
2022/09/30 00:17:49;;;;;;;6.55;4.78;;;;;;;19.21;100.00;98948.22;5112788;28;20201;-56
2022/09/30 00:20:16;;;;;;;5.00;4.60;;;;;;;19.20;100.00;98945.69;5113580;28;20201;-57
2022/09/30 00:22:43;;;;;;;5.63;4.80;;;;;;;19.20;100.00;98946.53;5113486;28;20199;-56
2022/09/30 00:25:11;;;;;;;5.43;4.03;;;;;;;19.21;100.00;98944.75;5113380;28;20205;-56
2022/09/30 00:27:38;;;;;;;5.07;4.60;;;;;;;19.16;100.00;98939.84;5113269;28;20222;-56
2022/09/30 00:30:05;;;;;;;7.00;4.28;;;;;;;19.17;100.00;98948.59;5113563;28;20198;-55
2022/09/30 00:32:32;;;;;;;4.75;4.30;;;;;;;19.17;100.00;98952.06;5114119;28;20872;-61
2022/09/30 00:35:00;;;;;;;4.95;4.55;;;;;;;19.03;100.00;98951.38;5113589;28;20316;-61
2022/09/30 00:37:27;;;;;;;5.85;5.00;;;;;;;18.95;100.00;98954.56;5113914;27;20191;-61
2022/09/30 00:39:54;;;;;;;15.70;6.00;;;;;;;18.84;100.00;98949.22;5113610;28;20197;-62
2022/09/30 00:42:21;;;;;;;20.02;6.15;;;;;;;18.79;100.00;98952.16;5113823;28;20644;-60
2022/09/30 00:44:54;;;;;;;25.40;7.25;;;;;;;18.66;100.00;98943.47;5113908;28;20194;-62
2022/09/30 00:47:42;;;;;;;17.73;5.95;;;;;;;18.59;100.00;98949.28;5114124;28;20635;-62
2022/09/30 00:50:32;;;;;;;10.88;5.28;;;;;;;18.59;100.00;98947.50;5113902;28;20701;-62
2022/09/30 00:53:07;;;;;;;6.70;4.97;;;;;;;18.70;100.00;98946.72;5104682;28;20201;-62
2022/09/30 00:55:42;;;;;;;5.97;5.00;;;;;;;18.79;100.00;98961.84;5113887;28;20190;-62
2022/09/30 00:58:13;;;;;;;5.60;5.10;;;;;;;18.83;100.00;98965.94;5114001;28;20581;-61
2022/09/30 01:00:40;;;;;;;5.53;4.83;;;;;;;18.79;100.00;98962.69;5113727;28;20281;-58
2022/09/30 01:03:08;;;;;;;6.50;4.65;;;;;;;18.91;100.00;98960.13;5113184;28;20205;-62
2022/09/30 01:05:36;;;;;;;8.60;5.60;;;;;;;18.84;100.00;98951.84;5113674;28;20204;-63
2022/09/30 01:08:06;;;;;;;10.88;5.00;;;;;;;18.79;100.00;98957.44;5113695;28;20760;-61
2022/09/30 01:10:33;;;;;;;9.07;5.32;;;;;;;18.73;100.00;98957.88;5112974;28;20205;-61
2022/09/30 01:13:00;;;;;;;6.70;5.30;;;;;;;18.79;100.00;98962.69;5112678;28;20277;-61
2022/09/30 01:15:48;;;;;;;7.07;5.43;;;;;;;18.79;100.00;98957.44;5113030;28;20191;-62
2022/09/30 01:18:26;;;;;;;7.00;5.00;;;;;;;18.77;100.00;98971.63;5112763;28;20191;-62
2022/09/30 01:21:35;;;;;;;5.35;4.82;;;;;;;18.79;100.00;98972.38;5112599;28;20849;-62
2022/09/30 01:24:40;;;;;;;6.55;4.30;;;;;;;18.75;100.00;98982.25;5112632;28;20198;-61
2022/09/30 01:27:19;;;;;;;7.30;4.57;;;;;;;18.69;100.00;98990.59;5080737;28;20608;-63
2022/09/30 01:30:08;;;;;;;5.60;5.20;;;;;;;18.64;100.00;98991.84;5112080;28;20202;-61
2022/09/30 01:33:07;;;;;;;4.85;4.55;;;;;;;18.56;100.00;98994.97;5112696;28;20191;-62
2022/09/30 01:35:45;;;;;;;6.35;5.05;;;;;;;18.51;100.00;98983.94;5112334;28;20237;-61
2022/09/30 01:38:18;;;;;;;5.32;5.03;;;;;;;18.49;100.00;98970.94;5112594;28;20190;-61
2022/09/30 01:40:53;;;;;;;5.05;4.65;;;;;;;18.48;100.00;98976.28;5112634;28;20672;-61
2022/09/30 01:43:30;;;;;;;5.30;4.82;;;;;;;18.51;100.00;98969.00;5112971;28;20666;-61
2022/09/30 01:46:03;;;;;;;6.90;4.68;;;;;;;18.48;100.00;98966.63;5112390;28;20205;-62
2022/09/30 01:48:41;;;;;;;6.85;5.15;;;;;;;18.49;100.00;98967.47;5112353;28;20655;-61
2022/09/30 01:51:11;;;;;;;5.53;4.95;;;;;;;18.46;100.00;98978.16;5112362;28;20190;-61
2022/09/30 01:53:44;;;;;;;4.70;4.40;;;;;;;18.47;100.00;98985.13;5112008;28;20194;-55
2022/09/30 01:56:18;;;;;;;8.00;5.00;;;;;;;18.44;100.00;98993.19;5111850;28;20213;-56
2022/09/30 01:58:51;;;;;;;5.50;5.13;;;;;;;18.40;100.00;98986.47;5111645;28;20285;-56
2022/09/30 02:01:24;;;;;;;5.32;4.82;;;;;;;18.40;100.00;98978.59;5111594;28;20199;-56
2022/09/30 02:03:56;;;;;;;5.45;5.05;;;;;;;18.42;100.00;98984.56;5111537;28;20203;-55
2022/09/30 02:06:28;;;;;;;5.38;4.97;;;;;;;18.43;100.00;98988.88;5111552;28;20297;-56
2022/09/30 02:08:59;;;;;;;5.90;5.30;;;;;;;18.36;100.00;98983.22;5111492;28;20203;-55
2022/09/30 02:11:28;;;;;;;6.45;5.88;;;;;;;18.36;100.00;98980.59;5111584;28;20670;-56
2022/09/30 02:14:01;;;;;;;7.07;5.07;;;;;;;18.38;100.00;98981.34;5111661;28;20198;-57
2022/09/30 02:16:34;;;;;;;6.07;5.57;;;;;;;18.39;100.00;98977.78;5111735;28;20215;-56
2022/09/30 02:19:11;;;;;;;6.15;5.47;;;;;;;18.41;100.00;98989.00;5111373;28;20259;-56
2022/09/30 02:21:42;;;;;;;6.00;5.57;;;;;;;18.25;100.00;98982.28;5110855;27;20183;-57
2022/09/30 02:24:15;;;;;;;5.40;4.95;;;;;;;18.35;100.00;98993.84;5111307;28;20585;-56
2022/09/30 02:26:44;;;;;;;7.53;5.68;;;;;;;18.29;100.00;98991.63;5111272;28;20210;-61
2022/09/30 02:29:16;;;;;;;5.97;5.47;;;;;;;18.16;100.00;98988.19;5111372;28;20205;-57
2022/09/30 02:31:46;;;;;;;5.30;4.97;;;;;;;18.14;100.00;98985.66;5111021;28;20201;-60
2022/09/30 02:34:18;;;;;;;6.07;5.50;;;;;;;18.17;100.00;98980.19;5111055;28;20266;-61
2022/09/30 02:36:51;;;;;;;7.50;5.65;;;;;;;18.18;100.00;98981.84;5111960;28;20191;-61
2022/09/30 02:39:27;;;;;;;7.40;5.70;;;;;;;18.18;100.00;98976.59;5111261;28;20587;-56
2022/09/30 02:42:01;;;;;;;8.27;5.88;;;;;;;18.16;100.00;98980.28;5110132;28;20213;-56
2022/09/30 02:44:30;;;;;;;6.78;5.40;;;;;;;18.12;100.00;98993.63;5111057;28;20608;-56
2022/09/30 02:47:09;;;;;;;7.20;6.00;;;;;;;18.00;100.00;99004.97;5110653;28;20310;-54
2022/09/30 02:49:45;;;;;;;6.47;5.93;;;;;;;17.94;100.00;99004.53;5110561;28;20194;-55
2022/09/30 02:52:22;;;;;;;6.57;5.97;;;;;;;17.89;100.00;99004.84;5110720;28;20198;-56
2022/09/30 02:54:59;;;;;;;6.80;6.10;;;;;;;17.83;100.00;99007.88;5110420;28;20198;-56
2022/09/30 02:57:35;;;;;;;6.00;5.43;;;;;;;17.73;100.00;98991.88;5110464;28;20194;-56
2022/09/30 03:00:02;;;;;;;8.27;6.10;;;;;;;17.68;100.00;98998.38;5110730;28;20301;-56
2022/09/30 03:02:29;;;;;;;6.40;5.80;;;;;;;17.65;100.00;99002.03;5110574;28;20287;-57
2022/09/30 03:04:57;;;;;;;6.17;5.70;;;;;;;17.69;100.00;99007.94;5110370;28;20704;-57
2022/09/30 03:07:24;;;;;;;7.63;5.37;;;;;;;17.70;100.00;99013.09;5110334;28;20602;-62
2022/09/30 03:09:56;;;;;;;8.80;5.97;;;;;;;17.62;100.00;99004.84;5110831;28;20195;-60
2022/09/30 03:12:39;;;;;;;5.87;5.40;;;;;;;17.67;100.00;99015.91;5110491;28;20201;-60
2022/09/30 03:15:33;;;;;;;5.97;5.47;;;;;;;17.57;100.00;99016.59;5110510;28;20198;-60
2022/09/30 03:18:14;;;;;;;6.70;6.10;;;;;;;17.53;100.00;99030.84;5106233;28;20278;-60
2022/09/30 03:20:53;;;;;;;7.43;5.70;;;;;;;17.47;100.00;99024.22;5106214;28;20202;-61
2022/09/30 03:24:04;;;;;;;6.10;5.50;;;;;;;17.36;100.00;99005.72;5110661;28;20202;-61
2022/09/30 03:26:39;;;;;;;6.67;6.17;;;;;;;17.34;100.00;99015.47;4995840;28;20203;-60
2022/09/30 03:29:15;;;;;;;7.17;5.80;;;;;;;17.22;100.00;99001.34;5103664;28;20190;-60
2022/09/30 03:31:52;;;;;;;6.13;5.57;;;;;;;17.26;100.00;99012.50;5109506;28;20562;-55
2022/09/30 03:34:27;;;;;;;9.07;6.23;;;;;;;17.17;100.00;99024.38;5107500;28;20237;-60
2022/09/30 03:37:03;;;;;;;7.17;6.47;;;;;;;17.19;100.00;99032.16;5110018;28;20234;-61
2022/09/30 03:39:43;;;;;;;6.50;6.00;;;;;;;17.21;100.00;99044.25;5110252;28;20190;-57
2022/09/30 03:42:16;;;;;;;6.83;6.07;;;;;;;17.22;100.00;99051.19;5110016;28;20571;-55
2022/09/30 03:44:46;;;;;;;6.50;6.00;;;;;;;17.10;100.00;99053.72;5109951;28;20670;-55
2022/09/30 03:47:17;;;;;;;7.37;6.77;;;;;;;17.04;100.00;99052.34;5109930;28;20218;-61
2022/09/30 03:49:49;;;;;;;6.60;6.00;;;;;;;17.02;100.00;99041.09;5110229;28;20194;-61
2022/09/30 03:52:18;;;;;;;9.13;6.27;;;;;;;17.01;100.00;99034.19;5112315;28;20205;-61
2022/09/30 03:54:48;;;;;;;8.57;5.90;;;;;;;16.94;100.00;99030.22;5114515;28;20198;-61
2022/09/30 03:57:15;;;;;;;8.67;6.33;;;;;;;16.83;100.00;99028.28;5114413;28;20575;-61
2022/09/30 03:59:42;;;;;;;6.60;6.10;;;;;;;16.68;100.00;99024.00;5114448;28;20194;-62
2022/09/30 04:02:12;;;;;;;8.07;6.37;;;;;;;16.73;100.00;99031.56;5114760;28;20194;-61
2022/09/30 04:04:40;;;;;;;8.67;6.67;;;;;;;16.66;100.00;99026.72;5114146;28;20201;-62
2022/09/30 04:07:09;;;;;;;20.53;6.53;;;;;;;16.72;100.00;99035.13;5111291;28;20279;-57
2022/09/30 04:09:37;;;;;;;8.97;6.50;;;;;;;16.69;100.00;99042.25;5114004;28;20198;-56
2022/09/30 04:12:05;;;;;;;11.23;6.30;;;;;;;16.61;100.00;99043.59;5113914;28;20219;-56
2022/09/30 04:14:32;;;;;;;9.03;6.30;;;;;;;16.61;100.00;99041.84;5113542;28;20201;-57
2022/09/30 04:16:59;;;;;;;7.57;6.33;;;;;;;16.71;100.00;99055.25;5113321;28;20627;-58
2022/09/30 04:19:26;;;;;;;8.53;6.07;;;;;;;16.67;100.00;99057.22;5113649;28;20194;-69
2022/09/30 04:21:53;;;;;;;7.70;6.67;;;;;;;16.62;100.00;99059.28;5113756;28;20666;-70
2022/09/30 04:24:21;;;;;;;8.80;6.47;;;;;;;16.61;100.00;99057.56;5113635;28;20198;-58
2022/09/30 04:26:49;;;;;;;8.77;6.97;;;;;;;16.68;100.00;99072.03;5113362;28;20194;-58
2022/09/30 04:29:16;;;;;;;18.27;6.63;;;;;;;16.78;100.00;99076.69;5113067;28;20218;-55
2022/09/30 04:31:43;;;;;;;13.77;6.00;;;;;;;16.90;100.00;99089.06;5112970;28;20194;-55
2022/09/30 04:34:10;;;;;;;7.00;6.43;;;;;;;16.94;100.00;99075.63;5112366;28;20317;-56
2022/09/30 04:36:37;;;;;;;11.93;6.57;;;;;;;16.85;100.00;99068.34;5112436;28;20225;-57
2022/09/30 04:39:05;;;;;;;8.70;7.23;;;;;;;16.72;100.00;99053.47;5112920;28;20199;-56
2022/09/30 04:41:32;;;;;;;11.17;6.60;;;;;;;16.86;100.00;99074.44;5113139;28;20201;-56
2022/09/30 04:44:05;;;;;;;6.77;6.27;;;;;;;17.00;100.00;99062.16;5113107;27;20209;-56
2022/09/30 04:46:35;;;;;;;12.53;6.60;;;;;;;17.06;100.00;99069.63;5113263;28;20194;-56
2022/09/30 04:49:02;;;;;;;9.07;6.27;;;;;;;17.09;100.00;99068.63;5112938;28;20223;-57
2022/09/30 04:51:29;;;;;;;12.83;6.97;;;;;;;17.21;100.00;99078.34;5113108;28;20203;-56
2022/09/30 04:53:56;;;;;;;12.37;7.17;;;;;;;17.12;100.00;99063.19;5113301;28;20714;-62
2022/09/30 04:56:25;;;;;;;14.30;6.90;;;;;;;17.27;100.00;99098.91;5113693;28;20190;-60
2022/09/30 04:58:52;;;;;;;15.97;7.90;;;;;;;17.26;100.00;99101.66;5110871;28;20569;-60
2022/09/30 05:01:21;;;;;;;8.50;7.00;;;;;;;17.30;100.00;99108.38;5095343;28;20775;-60
2022/09/30 05:03:49;;;;;;;16.70;7.70;;;;;;;17.49;100.00;99126.47;5110159;27;20669;-58
2022/09/30 05:06:16;;;;;;;10.63;8.20;;;;;;;17.54;100.00;99127.00;5111966;28;20525;-61
2022/09/30 05:08:44;;;;;;;15.00;7.10;;;;;;;17.66;100.00;99134.13;5111189;27;20218;-60
2022/09/30 05:11:16;;;;;;;10.27;6.43;;;;;;;17.68;100.00;99140.13;5111840;28;20223;-59
2022/09/30 05:13:43;;;;;;;7.80;6.80;;;;;;;18.12;100.00;99134.63;5112136;28;20222;-59
2022/09/30 05:16:11;;;;;;;8.73;5.95;;;;;;;19.27;100.00;99130.31;5112119;28;20218;-56
2022/09/30 05:18:41;;;;;;;8.48;6.28;;;;;;;20.76;97.40;99130.69;5111653;28;20201;-58
2022/09/30 05:21:09;;;;;;;13.60;6.13;;;;;;;22.15;88.34;99152.19;5111269;28;20683;-57
2022/09/30 05:23:37;;;;;;;6.07;5.50;;;;;;;23.78;78.62;99156.78;5112364;28;20187;-55
2022/09/30 05:26:04;;;;;;;10.75;5.60;;;;;;;24.94;70.21;99182.34;5112432;28;20205;-57
2022/09/30 05:28:31;;;;;;;8.57;6.07;;;;;;;25.96;65.28;99187.72;5112236;28;20214;-57
2022/09/30 05:30:59;;;;;;;11.43;6.20;;;;;;;26.57;62.59;99173.66;5112322;28;20198;-57
2022/09/30 05:33:27;;;;;;;7.25;6.43;;;;;;;27.76;58.13;99183.59;5112572;28;20195;-57
2022/09/30 05:35:59;;;;;;;9.85;6.32;;;;;;;28.92;53.76;99179.09;5111997;28;20287;-58
2022/09/30 05:38:26;;;;;;;13.65;5.68;;;;;;;30.15;49.71;99179.31;5112121;28;20195;-57
2022/09/30 05:40:53;;;;;;;6.88;5.60;;;;;;;30.37;48.08;99174.97;5111774;28;20281;-57
2022/09/30 05:43:20;;;;;;;7.90;5.88;;;;;;;30.89;46.88;99180.44;5112128;28;20593;-61
2022/09/30 05:45:53;;;;;;;7.90;6.15;;;;;;;30.88;45.55;99181.47;5111720;28;20205;-62
2022/09/30 05:48:20;;;;;;;8.65;5.93;;;;;;;31.31;44.92;99197.81;5111497;28;20288;-61
2022/09/30 05:50:51;;;;;;;12.23;5.60;;;;;;;31.32;44.50;99192.25;5110868;28;20685;-62
2022/09/30 05:53:20;;;;;;;11.05;6.90;;;;;;;31.42;44.61;99197.34;5110694;28;20240;-62
2022/09/30 05:55:47;;;;;;;9.50;5.90;;;;;;;32.14;42.75;99173.28;5110360;28;20240;-63
2022/09/30 05:58:14;;;;;;;12.25;6.03;;;;;;;33.29;40.40;99197.28;5110590;28;20270;-58
2022/09/30 06:00:42;;;;;;;10.02;7.30;;;;;;;33.32;39.34;99197.69;5110148;28;20190;-62
2022/09/30 06:03:09;;;;;;;8.40;7.10;;;;;;;33.72;39.05;99203.31;5110727;28;20297;-62
2022/09/30 06:05:37;;;;;;;9.38;6.13;;;;;;;33.72;38.66;99208.69;5110649;28;20202;-61
2022/09/30 06:08:06;;;;;;;7.53;6.93;;;;;;;33.80;38.08;99197.78;5106220;28;20322;-62
2022/09/30 06:10:35;;;;;;;11.50;6.03;;;;;;;34.48;36.93;99193.22;5109290;27;20203;-62
2022/09/30 06:13:03;;;;;;;15.27;7.22;;;;;;;34.37;37.17;99199.22;5108477;28;20191;-62
2022/09/30 06:15:30;;;;;;;14.35;7.18;;;;;;;34.72;36.18;99192.63;5103514;28;20186;-58
2022/09/30 06:17:57;;;;;;;8.90;6.22;;;;;;;35.86;34.50;99198.47;5110052;28;20670;-58
2022/09/30 06:20:24;;;;;;;9.93;6.30;;;;;;;36.34;33.41;99219.66;5110068;28;20203;-58
2022/09/30 06:22:51;;;;;;;8.18;6.38;;;;;;;36.71;32.50;99224.19;5110084;28;20194;-61
2022/09/30 06:25:18;;;;;;;16.40;9.75;;;;;;;36.10;33.50;99228.50;5111427;28;20593;-61
2022/09/30 06:27:46;;;;;;;11.13;9.50;;;;;;;36.73;32.13;99224.81;5110921;28;20712;-61
2022/09/30 06:30:13;;;;;;;8.18;6.22;;;;;;;37.08;31.62;99243.25;5111177;28;20213;-58
2022/09/30 06:32:41;;;;;;;10.15;7.60;;;;;;;37.22;32.08;99252.13;5111587;28;20767;-61
2022/09/30 06:35:09;;;;;;;10.45;5.85;;;;;;;38.30;30.18;99249.66;5111266;28;20759;-64
2022/09/30 06:37:36;;;;;;;6.97;5.80;;;;;;;38.23;30.39;99262.50;5110809;28;20553;-62
2022/09/30 06:40:04;;;;;;;12.73;6.65;;;;;;;38.40;29.80;99255.34;5110995;28;20627;-62
2022/09/30 06:42:31;;;;;;;9.88;6.25;;;;;;;38.84;29.91;99271.19;5110856;28;20276;-63
2022/09/30 06:44:59;;;;;;;15.90;5.80;;;;;;;39.59;28.28;99273.31;5110640;28;20200;-63
2022/09/30 06:47:26;;;;;;;9.35;6.00;;;;;;;39.83;28.37;99274.94;5110912;28;20861;-58
2022/09/30 06:49:57;;;;;;;10.82;6.05;;;;;;;40.11;27.88;99276.03;5110777;28;20244;-62
2022/09/30 06:52:25;;;;;;;9.23;5.70;;;;;;;39.78;28.08;99273.97;5110807;28;20202;-63
2022/09/30 06:54:55;;;;;;;15.00;5.95;;;;;;;39.36;28.45;99254.28;5109183;28;20612;-58
2022/09/30 06:57:23;;;;;;;6.20;4.60;;;;;;;38.48;28.65;99247.75;5090266;28;20201;-58
2022/09/30 06:59:51;;;;;;;5.95;4.28;;;;;;;38.51;28.77;99251.84;5090284;28;20229;-58
2022/09/30 07:02:19;;;;;;;6.45;4.38;;;;;;;39.28;28.02;99255.44;5090112;28;20195;-59
2022/09/30 07:04:46;;;;;;;10.25;4.63;;;;;;;40.02;27.14;99264.72;5090225;28;20201;-63
2022/09/30 07:07:13;;;;;;;10.35;4.78;;;;;;;39.71;27.39;99257.00;5090798;28;20285;-63
2022/09/30 07:09:41;;;;;;;6.05;4.43;;;;;;;40.25;27.19;99269.25;5089808;28;20313;-63
2022/09/30 07:12:08;;;;;;;6.00;5.00;;;;;;;40.60;26.18;99277.28;5090164;28;20198;-63
2022/09/30 07:14:36;;;;;;;10.32;5.03;;;;;;;37.42;29.93;99279.81;5089934;28;20212;-58
2022/09/30 07:17:04;;;;;;;11.10;4.88;;;;;;;37.09;30.81;99269.28;5089713;28;20194;-58
2022/09/30 07:19:34;;;;;;;9.73;4.13;;;;;;;35.97;32.10;99245.59;5089879;28;20198;-58
2022/09/30 07:22:26;;;;;;;5.97;4.80;;;;;;;33.95;35.24;99276.56;5105115;28;20201;-62
2022/09/30 07:24:49;;;;;;;8.32;5.25;;;;;;;31.96;39.94;99269.50;5108886;28;20187;-62
2022/09/30 07:27:16;;;;;;;6.07;4.90;;;;;;;30.12;44.39;99260.00;5109075;28;20670;-62
2022/09/30 07:29:43;;;;;;;9.38;5.55;;;;;;;29.13;47.58;99255.06;5108972;28;20237;-58
2022/09/30 07:32:10;;;;;;;7.97;6.25;;;;;;;28.30;50.63;99253.47;5105948;28;20255;-62
2022/09/30 07:34:43;;;;;;;12.02;5.50;;;;;;;27.34;54.19;99259.00;5108696;28;20295;-62
2022/09/30 07:37:11;;;;;;;6.95;5.50;;;;;;;26.41;57.79;99264.03;5109086;28;20253;-57
2022/09/30 07:39:38;;;;;;;6.75;5.32;;;;;;;26.12;59.70;99266.84;5108851;28;20190;-61
2022/09/30 07:42:05;;;;;;;10.48;5.50;;;;;;;25.78;61.47;99267.41;5108750;28;20194;-63
2022/09/30 07:44:32;;;;;;;7.35;5.82;;;;;;;25.50;62.96;99260.38;5109263;28;20216;-63
2022/09/30 07:47:00;;;;;;;6.82;5.30;;;;;;;25.17;64.18;99261.72;5109534;28;20717;-63
2022/09/30 07:49:27;;;;;;;6.20;4.47;;;;;;;25.02;64.70;99258.66;5110444;28;20603;-63
2022/09/30 07:51:57;;;;;;;8.63;5.00;;;;;;;24.82;65.84;99262.28;5109346;28;20267;-62
2022/09/30 07:54:27;;;;;;;9.65;5.85;;;;;;;25.06;65.52;99260.03;5110110;28;20251;-62
2022/09/30 07:56:54;;;;;;;26.05;9.95;;;;;;;24.89;65.17;99236.84;5110071;28;20202;-63
2022/09/30 07:59:21;;;;;;;12.05;6.20;;;;;;;25.13;65.26;99265.63;5110311;28;20555;-63
2022/09/30 08:01:49;;;;;;;8.45;7.47;;;;;;;25.10;65.69;99271.22;5110129;28;20580;-63
2022/09/30 08:04:17;;;;;;;9.23;8.13;;;;;;;24.77;67.21;99270.66;5110087;28;20255;-62
2022/09/30 08:06:46;;;;;;;13.45;8.65;;;;;;;24.58;68.46;99281.28;5110008;28;20729;-57
2022/09/30 08:09:17;;;;;;;10.00;9.02;;;;;;;24.69;67.88;99281.16;5109285;28;20242;-57
2022/09/30 08:11:44;;;;;;;10.63;9.02;;;;;;;24.73;67.93;99285.19;5109673;28;20602;-57
2022/09/30 08:14:14;;;;;;;8.10;6.28;;;;;;;24.71;67.44;99283.66;5109419;28;20187;-57
2022/09/30 08:16:41;;;;;;;6.00;4.97;;;;;;;24.49;67.16;99293.53;5109604;28;20230;-63
2022/09/30 08:19:14;;;;;;;12.90;7.40;;;;;;;24.67;67.68;99290.22;5109841;28;20201;-63
2022/09/30 08:21:41;;;;;;;14.48;8.35;;;;;;;24.57;68.65;99290.22;5092118;28;20222;-57
2022/09/30 08:24:08;;;;;;;10.05;6.85;;;;;;;24.57;68.95;99284.91;5107646;28;20194;-57
2022/09/30 08:26:37;;;;;;;5.60;5.13;;;;;;;24.70;68.27;99290.78;5107169;28;20296;-56
2022/09/30 08:29:04;;;;;;;11.82;8.02;;;;;;;24.79;67.21;99289.13;5109218;28;20218;-63
2022/09/30 08:31:32;;;;;;;7.90;5.88;;;;;;;24.64;67.25;99291.34;5109119;28;20194;-62
2022/09/30 08:34:01;;;;;;;6.13;5.50;;;;;;;24.56;67.52;99281.41;5108493;28;20205;-62
2022/09/30 08:36:29;;;;;;;16.20;9.50;;;;;;;24.65;66.75;99281.56;5108695;28;20245;-56
2022/09/30 08:38:56;;;;;;;7.18;6.47;;;;;;;24.76;66.74;99284.06;5112167;28;20285;-62
2022/09/30 08:41:39;;;;;;;8.00;5.35;;;;;;;24.86;66.64;99279.59;5113547;28;20194;-62
2022/09/30 08:44:20;;;;;;;6.75;6.07;;;;;;;25.03;66.24;99281.59;5113043;28;20206;-56
2022/09/30 08:46:54;;;;;;;9.82;4.97;;;;;;;24.97;65.91;99282.13;5113126;28;20220;-57
2022/09/30 08:49:37;;;;;;;7.38;4.65;;;;;;;25.15;66.68;99275.16;5112821;28;20552;-57
2022/09/30 08:52:09;;;;;;;4.40;4.07;;;;;;;25.29;64.06;99276.50;5113036;28;20198;-62
2022/09/30 08:54:36;;;;;;;5.30;4.90;;;;;;;25.30;63.86;99284.31;5113538;28;20230;-62
2022/09/30 08:57:05;;;;;;;7.18;4.60;;;;;;;25.52;62.64;99288.47;5113055;28;20198;-61
2022/09/30 08:59:37;;;;;;;4.38;3.97;;;;;;;25.39;61.65;99293.28;5113056;28;20750;-57
2022/09/30 09:02:19;;;;;;;6.78;5.10;;;;;;;25.43;61.73;99289.34;5112646;28;20604;-57
2022/09/30 09:04:48;;;;;;;5.47;5.18;;;;;;;25.45;61.55;99294.50;5112932;28;20592;-56
2022/09/30 09:07:26;;;;;;;4.63;4.10;;;;;;;25.56;61.89;99294.34;5112715;28;20285;-57
2022/09/30 09:10:07;;;;;;;5.22;4.75;;;;;;;25.69;62.09;99300.22;5112409;28;20235;-57
2022/09/30 09:12:42;;;;;;;5.30;4.65;;;;;;;25.72;61.56;99299.94;5112837;28;20603;-62
2022/09/30 09:15:24;;;;;;;7.20;4.32;;;;;;;25.67;61.36;99297.69;5112598;28;20202;-61
2022/09/30 09:18:17;;;;;;;9.50;5.55;;;;;;;25.68;61.63;99298.53;5112788;28;20194;-61
2022/09/30 09:20:53;;;;;;;4.60;3.83;;;;;;;25.70;60.73;99311.69;5112715;28;20210;-62
2022/09/30 09:23:20;;;;;;;4.40;4.18;;;;;;;25.68;61.15;99309.16;5113200;28;20217;-61
2022/09/30 09:25:51;;;;;;;5.88;4.25;;;;;;;25.66;61.06;99303.97;5112591;28;20195;-61
2022/09/30 09:28:29;;;;;;;5.10;4.57;;;;;;;25.71;60.61;99308.88;5112635;28;20638;-61
2022/09/30 09:31:00;;;;;;;5.13;4.70;;;;;;;25.74;60.49;99299.75;5112674;28;20285;-62
2022/09/30 09:33:30;;;;;;;7.38;4.43;;;;;;;25.86;60.02;99307.41;5106403;28;20195;-61
2022/09/30 09:36:07;;;;;;;4.80;4.40;;;;;;;25.96;60.21;99304.72;5100132;28;20779;-61
2022/09/30 09:38:44;;;;;;;6.57;5.32;;;;;;;26.07;58.99;99303.69;5111161;28;20201;-61
2022/09/30 09:41:24;;;;;;;9.27;6.97;;;;;;;26.07;58.84;99312.50;5111240;28;20197;-61
2022/09/30 09:43:59;;;;;;;5.60;5.07;;;;;;;26.13;58.43;99309.25;5110699;28;20320;-61
2022/09/30 09:46:31;;;;;;;5.90;4.35;;;;;;;26.21;58.05;99311.16;5111148;28;20285;-61
2022/09/30 09:49:29;;;;;;;5.78;4.22;;;;;;;26.26;58.81;99308.91;5110403;28;20236;-62
2022/09/30 09:52:12;;;;;;;8.57;4.85;;;;;;;26.28;56.96;99299.00;5110821;28;20281;-61
2022/09/30 09:54:42;;;;;;;5.53;3.85;;;;;;;26.36;56.47;99310.56;5111126;28;20346;-61
2022/09/30 09:57:10;;;;;;;4.30;4.00;;;;;;;26.34;55.12;99306.34;5108056;28;20194;-57
2022/09/30 09:59:38;;;;;;;5.63;4.07;;;;;;;26.50;54.69;99305.72;5110875;28;20190;-56
2022/09/30 10:02:23;;;;;;;7.50;4.05;;;;;;;26.55;55.13;99306.91;5109878;28;20692;-60
2022/09/30 10:04:58;;;;;;;9.52;7.20;;;;;;;26.59;54.87;99281.69;5103429;28;20206;-58
2022/09/30 10:07:27;;;;;;;4.30;3.90;;;;;;;26.53;54.96;99274.28;5110269;28;20577;-57
2022/09/30 10:10:16;;;;;;;7.13;5.75;;;;;;;26.72;54.87;99299.94;5110164;28;20648;-56
2022/09/30 10:12:44;;;;;;;6.22;5.68;;;;;;;26.69;54.95;99295.75;5109400;28;20697;-58
2022/09/30 10:15:19;;;;;;;7.82;6.95;;;;;;;26.74;54.71;99297.97;5110143;28;20728;-59
2022/09/30 10:17:53;;;;;;;4.85;4.55;;;;;;;26.81;54.25;99292.84;5110170;27;20589;-57
2022/09/30 10:20:28;;;;;;;5.15;4.68;;;;;;;26.82;53.46;99289.22;5110041;28;20186;-56
2022/09/30 10:23:03;;;;;;;8.23;4.72;;;;;;;26.91;53.85;99294.44;5107780;28;20201;-57
2022/09/30 10:25:30;;;;;;;12.90;8.82;;;;;;;26.98;53.58;99289.38;5108245;28;20293;-61
2022/09/30 10:27:59;;;;;;;8.30;6.10;;;;;;;27.09;53.98;99292.63;5110491;28;20199;-61
2022/09/30 10:30:46;;;;;;;6.13;5.53;;;;;;;27.21;52.88;99285.22;5110051;28;20218;-61
2022/09/30 10:33:27;;;;;;;11.63;4.32;;;;;;;27.36;52.32;99283.66;5109973;28;20204;-61
2022/09/30 10:35:59;;;;;;;6.07;5.35;;;;;;;27.45;52.38;99282.72;5109163;28;20232;-58
2022/09/30 10:38:28;;;;;;;5.30;4.80;;;;;;;27.59;51.43;99280.50;5109859;28;20195;-58
2022/09/30 10:40:56;;;;;;;8.95;4.60;;;;;;;27.52;51.00;99269.63;5110875;28;20190;-57
2022/09/30 10:43:31;;;;;;;6.25;4.03;;;;;;;27.57;51.53;99277.16;5111279;28;20199;-61
2022/09/30 10:46:02;;;;;;;5.43;4.47;;;;;;;27.48;51.18;99271.75;5110757;28;20198;-61
2022/09/30 10:48:34;;;;;;;12.45;6.68;;;;;;;27.54;50.89;99269.47;5110966;28;20202;-62
2022/09/30 10:51:02;;;;;;;5.25;4.85;;;;;;;27.56;51.67;99273.66;5110553;28;20226;-57
2022/09/30 10:53:32;;;;;;;7.63;5.82;;;;;;;27.56;51.42;99268.31;5110897;28;20220;-57
2022/09/30 10:55:59;;;;;;;7.65;5.88;;;;;;;27.47;51.97;99262.09;5110567;28;20198;-56
2022/09/30 10:58:45;;;;;;;7.05;6.43;;;;;;;27.56;51.74;99262.16;5110589;28;20580;-57
2022/09/30 11:01:21;;;;;;;7.38;6.15;;;;;;;27.53;50.56;99267.78;5109597;28;20251;-58
2022/09/30 11:04:01;;;;;;;4.70;4.10;;;;;;;27.59;50.17;99261.84;5110524;28;20194;-58
2022/09/30 11:06:31;;;;;;;4.28;3.90;;;;;;;27.51;50.01;99259.94;5110408;28;20202;-57
2022/09/30 11:09:04;;;;;;;5.40;4.28;;;;;;;27.45;50.75;99261.41;5110285;28;20197;-58
2022/09/30 11:11:38;;;;;;;9.48;4.10;;;;;;;27.57;50.27;99263.81;5110414;28;20204;-61
2022/09/30 11:14:20;;;;;;;5.18;4.43;;;;;;;27.63;49.33;99265.88;5110186;28;20195;-62
2022/09/30 11:16:52;;;;;;;5.05;4.43;;;;;;;27.68;49.17;99263.56;5110371;28;20198;-57
2022/09/30 11:19:27;;;;;;;4.95;4.43;;;;;;;27.61;49.19;99265.19;5110278;28;20574;-56
2022/09/30 11:22:00;;;;;;;5.55;3.92;;;;;;;27.50;48.19;99257.44;5110164;28;20205;-56
2022/09/30 11:24:34;;;;;;;6.90;4.18;;;;;;;27.50;47.97;99254.78;5110130;28;20195;-57
2022/09/30 11:27:05;;;;;;;7.00;4.13;;;;;;;27.43;48.56;99250.03;5109939;28;20205;-56
2022/09/30 11:29:55;;;;;;;5.72;4.03;;;;;;;27.35;48.36;99254.50;5109949;28;20222;-56
2022/09/30 11:32:39;;;;;;;6.57;4.40;;;;;;;27.36;49.16;99256.19;5109965;28;20238;-57
2022/09/30 11:35:33;;;;;;;9.77;5.10;;;;;;;27.35;48.20;99250.00;5109944;28;20617;-61
2022/09/30 11:38:10;;;;;;;5.72;3.97;;;;;;;27.34;47.63;99243.00;5110029;28;20199;-60
2022/09/30 11:40:43;;;;;;;4.32;3.95;;;;;;;27.43;47.25;99238.56;5110076;28;20209;-61
2022/09/30 11:43:25;;;;;;;5.28;3.75;;;;;;;27.43;47.40;99239.38;5110035;28;20641;-60
2022/09/30 11:46:16;;;;;;;4.38;4.00;;;;;;;27.39;47.57;99235.38;5108394;28;20195;-61
2022/09/30 11:49:04;;;;;;;7.70;4.28;;;;;;;27.40;48.32;99242.38;5089351;28;20198;-56
2022/09/30 11:51:43;;;;;;;4.15;3.75;;;;;;;27.41;48.38;99233.41;5089457;28;20252;-56